메인 페이지
METAR-TAF:

METAR-TAF

공항 :

Lebanon, 뉴햄프셔, 미국

위도: 43-37-38N, 경도: 072-18-21W, 고도: 182m

현재 날씨관측

예보는 29분 전, 12:53시(UTC)에 발표되었습니다.
13kt
온도 26°C
습도 70%
기압 1015 hPa
시정: 16.1km
고도 1400ft 상공 구름 보통

METAR: KLEB 291253Z 19013KT 10SM SCT014 26/20 A2996 RMK AO2 SLP133 T02560200

시각: 09:22 (13:22 UTC)

예보

예보는 2 시간 1분 전, 11:21시(UTC)에 발표되었습니다.
예보 대상 시간: 29일 11시부터 30일 12시까지 (UTC)
15kt
시정: 10km
고도 1100ft 상공 구름 많음
고도 3500ft 상공 구름 많음
29일 1400시부터 (UTC)
남남서11kt, 순간 최대 풍속 18kt
시정: 10km
고도 3500ft 상공 구름 많음
29일 2200시부터 (UTC)
10kt
시정: 9.7km
고도 3500ft 상공 구름 많음
소나기
30일 0200시부터 (UTC)
남남서11kt
시정: 10km
고도 2500ft 상공 구름 보통
고도 3500ft 상공 구름 많음

TAF: KLEB 291121Z 2911/3012 19015KT P6SM BKN011 BKN035 FM291400 20011G18KT P6SM BKN035 FM292200 19010KT 6SM SHRA BKN035 FM300200 20011KT P6SM SCT025 BKN035

4,000개 이상의 공항 관측 자료 및 예보 (METAR 및 TAF 보고).

지도상에서 검색 가능한 기상관측소가 노란 점과 빨간 점으로 표시되어 있습니다.

기상관측소 명을 보려면 표시 위로 마우스를 이동하세요.

날씨 관측과 예보를 보려면 클릭하세요.

지도 변경 : 확대하려면 엑스 표시가 있는 녹색 버튼, 축소하려면 빼기 표시가 있는 녹색 버튼, 다음 페이지의 지도를 보려면 녹색 화살표를 클릭하세요.


METAR-TAF: